createdAt,value
2023-05-20T06:32:30.578Z,98166.66
2023-05-20T06:34:58.872Z,98165.59
2023-05-20T06:37:26.199Z,98161.34
2023-05-20T06:39:54.146Z,98168.00
2023-05-20T06:42:22.308Z,98161.84
2023-05-20T06:45:04.153Z,98168.53
2023-05-20T06:47:42.912Z,98168.25
2023-05-20T06:50:11.564Z,98164.81
2023-05-20T06:52:39.145Z,98162.16
2023-05-20T06:55:07.618Z,98168.50
2023-05-20T06:57:36.094Z,98163.44
2023-05-20T07:00:06.011Z,98160.53
2023-05-20T07:02:37.967Z,98158.13
2023-05-20T07:05:06.570Z,98160.81
2023-05-20T07:07:34.727Z,98153.41
2023-05-20T07:10:02.437Z,98150.41
2023-05-20T07:12:29.854Z,98155.25
2023-05-20T07:14:57.365Z,98146.47
2023-05-20T07:17:25.826Z,98149.91
2023-05-20T07:19:53.896Z,98157.09
2023-05-20T07:22:21.344Z,98151.81
2023-05-20T07:24:56.634Z,98149.69
2023-05-20T07:27:24.154Z,98152.84
2023-05-20T07:29:51.900Z,98150.69
2023-05-20T07:32:19.326Z,98143.19
2023-05-20T07:34:46.980Z,98138.84
2023-05-20T07:37:16.340Z,98147.75
2023-05-20T07:39:44.116Z,98143.97
2023-05-20T07:42:11.413Z,98146.00
2023-05-20T07:44:41.997Z,98143.91
2023-05-20T07:47:09.550Z,98145.59
2023-05-20T07:49:37.044Z,98134.66
2023-05-20T07:52:05.034Z,98138.78
2023-05-20T07:54:32.415Z,98134.91
2023-05-20T07:57:01.114Z,98136.38
2023-05-20T07:59:29.811Z,98136.75
2023-05-20T08:01:57.286Z,98138.66
2023-05-20T08:06:56.353Z,98139.69
2023-05-20T08:09:37.644Z,98144.16
2023-05-20T08:12:05.930Z,98138.19
2023-05-20T08:14:33.220Z,98132.09
2023-05-20T08:17:00.664Z,98142.72
2023-05-20T08:19:28.410Z,98132.53
2023-05-20T08:21:55.944Z,98136.00
2023-05-20T08:24:24.004Z,98134.03
2023-05-20T08:26:52.065Z,98128.09
2023-05-20T08:29:20.873Z,98122.69
2023-05-20T08:31:48.282Z,98130.50
2023-05-20T08:34:16.815Z,98134.19
2023-05-20T08:36:45.396Z,98139.19
2023-05-20T08:39:12.954Z,98126.84
2023-05-20T08:41:40.288Z,98129.59
2023-05-20T08:44:11.160Z,98127.56
2023-05-20T08:46:39.525Z,98125.94
2023-05-20T08:49:07.897Z,98120.25
2023-05-20T08:51:37.673Z,98126.03
2023-05-20T08:54:05.149Z,98116.38
2023-05-20T08:56:33.886Z,98120.13
2023-05-20T08:59:01.411Z,98126.03
2023-05-20T09:01:29.249Z,98121.06
2023-05-20T09:03:56.869Z,98114.81
2023-05-20T09:06:24.268Z,98111.97
2023-05-20T09:08:52.901Z,98118.91
2023-05-20T09:11:22.356Z,98112.88
2023-05-20T09:13:51.400Z,98116.66
2023-05-20T09:16:18.949Z,98117.75
2023-05-20T09:18:47.170Z,98112.50
2023-05-20T09:21:14.434Z,98110.69
2023-05-20T09:23:49.340Z,98109.13
2023-05-20T09:26:18.641Z,98106.75
2023-05-20T09:28:46.645Z,98110.44
2023-05-20T09:31:17.247Z,98116.22
2023-05-20T09:33:44.924Z,98112.09
2023-05-20T09:36:14.642Z,98113.41
2023-05-20T09:38:45.696Z,98120.50
2023-05-20T09:41:15.485Z,98115.09
2023-05-20T09:43:43.177Z,98110.34
2023-05-20T09:46:11.170Z,98108.59
2023-05-20T09:48:39.981Z,98109.09
2023-05-20T09:51:08.182Z,98107.44
2023-05-20T09:53:36.108Z,98107.78
2023-05-20T09:56:03.991Z,98108.44
2023-05-20T09:58:33.836Z,98108.50
2023-05-20T10:01:01.523Z,98107.41
2023-05-20T10:03:29.033Z,98100.13
2023-05-20T10:06:10.556Z,98097.84
2023-05-20T10:09:10.163Z,98096.50
2023-05-20T10:12:22.110Z,98095.53
2023-05-20T10:15:28.167Z,98093.22
2023-05-20T10:18:49.273Z,98082.34
2023-05-20T10:21:18.605Z,98079.63
2023-05-20T10:23:46.655Z,98074.47
2023-05-20T10:26:14.365Z,98072.56
2023-05-20T10:28:42.308Z,98076.16
2023-05-20T10:31:23.577Z,98066.44
2023-05-20T10:33:54.290Z,98057.78
2023-05-20T10:36:32.083Z,98058.22
2023-05-20T10:39:00.764Z,98059.94
2023-05-20T10:41:29.577Z,98049.72
2023-05-20T10:44:07.080Z,98055.00
2023-05-20T10:46:51.501Z,98044.16
2023-05-20T10:49:27.282Z,98046.53
2023-05-20T10:51:56.024Z,98040.94
2023-05-20T10:54:23.551Z,98046.22
2023-05-20T10:56:55.698Z,98045.06
2023-05-20T10:59:23.376Z,98037.97
2023-05-20T11:01:51.197Z,98030.06
2023-05-20T11:04:19.946Z,98031.31
2023-05-20T11:06:54.334Z,98030.03
2023-05-20T11:09:22.701Z,98018.28
2023-05-20T11:11:52.580Z,98020.06
2023-05-20T11:14:20.294Z,98019.28
2023-05-20T11:16:52.198Z,98012.03
2023-05-20T11:19:20.281Z,98017.19
2023-05-20T11:21:48.757Z,98013.19
2023-05-20T11:24:26.494Z,98012.13
2023-05-20T11:26:58.164Z,98003.66
2023-05-20T11:29:27.191Z,98010.47
2023-05-20T11:31:55.076Z,98008.44
2023-05-20T11:34:25.921Z,98004.25
2023-05-20T11:36:58.876Z,97994.31
2023-05-20T11:39:30.307Z,97990.09
2023-05-20T11:41:59.163Z,97993.81
2023-05-20T11:44:26.751Z,97989.34
2023-05-20T11:47:02.077Z,97991.00
2023-05-20T11:49:30.969Z,97988.13
2023-05-20T11:51:58.860Z,97983.16
2023-05-20T11:54:26.695Z,97986.72
2023-05-20T11:56:56.238Z,97977.75
2023-05-20T11:59:25.081Z,97984.69
2023-05-20T12:01:52.830Z,97981.94
2023-05-20T12:04:20.552Z,97981.81
2023-05-20T12:06:48.145Z,97985.16
2023-05-20T12:09:15.575Z,97972.16
2023-05-20T12:11:44.625Z,97973.38
2023-05-20T12:14:12.169Z,97964.50
2023-05-20T12:16:39.626Z,97967.97
2023-05-20T12:19:08.787Z,97961.59
2023-05-20T12:21:36.375Z,97971.03
2023-05-20T12:24:06.133Z,97972.88
2023-05-20T12:26:35.243Z,97974.34
2023-05-20T12:29:02.620Z,97966.16
2023-05-20T12:31:31.642Z,97956.97
2023-05-20T12:34:00.420Z,97960.53
2023-05-20T12:36:27.908Z,97953.50
2023-05-20T12:38:55.211Z,97956.97
2023-05-20T12:41:22.709Z,97953.59
2023-05-20T12:43:50.069Z,97953.16
2023-05-20T12:46:18.874Z,97955.09
2023-05-20T12:48:46.408Z,97952.56
2023-05-20T12:51:13.739Z,97937.59
2023-05-20T12:53:41.016Z,97948.59
2023-05-20T12:56:08.616Z,97946.53
2023-05-20T12:58:35.871Z,97945.63
2023-05-20T13:01:03.439Z,97937.84
2023-05-20T13:03:30.816Z,97937.75
2023-05-20T13:05:59.445Z,97939.75
2023-05-20T13:08:28.567Z,97936.34
2023-05-20T13:10:56.468Z,97931.41
2023-05-20T13:13:24.996Z,97939.03
2023-05-20T13:15:52.441Z,97933.31
2023-05-20T13:18:20.121Z,97936.53
2023-05-20T13:20:47.464Z,97923.88
2023-05-20T13:23:14.906Z,97920.84
2023-05-20T13:25:43.023Z,97929.94
2023-05-20T13:28:10.793Z,97925.19
2023-05-20T13:30:38.430Z,97912.09
2023-05-20T13:33:05.926Z,97904.78
2023-05-20T13:35:34.116Z,97909.19
2023-05-20T13:38:01.535Z,97901.31
2023-05-20T13:40:28.949Z,97904.97
2023-05-20T13:42:56.713Z,97898.03
2023-05-20T13:45:24.023Z,97895.81
2023-05-20T13:47:51.552Z,97891.81
2023-05-20T13:50:19.840Z,97887.69
2023-05-20T13:52:47.122Z,97887.69
2023-05-20T13:55:14.610Z,97881.78
2023-05-20T13:57:42.645Z,97884.59
2023-05-20T14:00:10.630Z,97877.22
2023-05-20T14:02:38.617Z,97878.63
2023-05-20T14:05:07.709Z,97880.25
2023-05-20T14:07:35.198Z,97885.16
2023-05-20T14:10:02.724Z,97883.41
2023-05-20T14:12:30.173Z,97891.66
2023-05-20T14:14:57.847Z,97892.66
2023-05-20T14:17:25.958Z,97885.09
2023-05-20T14:19:53.316Z,97887.84
2023-05-20T14:22:20.622Z,97887.06
2023-05-20T14:24:47.865Z,97882.00
2023-05-20T14:27:15.296Z,97880.31
2023-05-20T14:29:42.659Z,97877.25
2023-05-20T14:32:11.604Z,97868.16
2023-05-20T14:34:39.125Z,97865.34
2023-05-20T14:37:09.937Z,97873.47
2023-05-20T14:39:37.461Z,97874.09
2023-05-20T14:42:05.451Z,97876.56
2023-05-20T14:44:32.805Z,97877.06
2023-05-20T14:47:00.504Z,97870.31
2023-05-20T14:49:27.853Z,97866.38
2023-05-20T14:51:55.216Z,97873.22
2023-05-20T14:54:25.204Z,97867.75
2023-05-20T14:56:52.627Z,97869.50
2023-05-20T14:59:19.991Z,97858.53
2023-05-20T15:01:47.210Z,97866.94
2023-05-20T15:04:14.607Z,97859.47
2023-05-20T15:06:42.191Z,97852.13
2023-05-20T15:09:10.269Z,97844.47
2023-05-20T15:11:37.639Z,97851.69
2023-05-20T15:14:05.036Z,97845.28
2023-05-20T15:16:32.526Z,97839.75
2023-05-20T15:19:00.046Z,97839.00
2023-05-20T15:21:27.363Z,97832.56
2023-05-20T15:23:54.767Z,97839.53
2023-05-20T15:26:22.062Z,97843.69
2023-05-20T15:28:49.456Z,97847.16
2023-05-20T15:31:17.004Z,97845.25
2023-05-20T15:33:44.420Z,97847.31
2023-05-20T15:36:11.854Z,97833.38
2023-05-20T15:38:39.499Z,97828.97
2023-05-20T15:41:06.813Z,97833.13
2023-05-20T15:43:34.069Z,97836.81
2023-05-20T15:46:02.305Z,97836.41
2023-05-20T15:48:29.805Z,97831.00
2023-05-20T15:50:57.106Z,97830.44
2023-05-20T15:53:24.480Z,97830.34
2023-05-20T15:55:52.532Z,97819.44
2023-05-20T15:58:19.887Z,97832.72
2023-05-20T16:00:47.742Z,97832.47
2023-05-20T16:03:15.244Z,97825.28
2023-05-20T16:05:42.836Z,97839.47
2023-05-20T16:08:10.208Z,97833.38
2023-05-20T16:10:37.571Z,97830.22
2023-05-20T16:13:04.978Z,97829.78
2023-05-20T16:15:35.686Z,97838.59
2023-05-20T16:18:03.596Z,97832.56
2023-05-20T16:20:31.205Z,97825.78
2023-05-20T16:22:58.421Z,97823.09
2023-05-20T16:25:25.782Z,97827.25
2023-05-20T16:27:53.186Z,97824.38
2023-05-20T16:30:20.521Z,97828.47
2023-05-20T16:32:47.824Z,97825.78
2023-05-20T16:35:16.558Z,97827.72
2023-05-20T16:37:44.603Z,97823.31
2023-05-20T16:40:12.478Z,97824.91
2023-05-20T16:42:40.063Z,97817.63
2023-05-20T16:45:08.290Z,97821.31
2023-05-20T16:47:37.059Z,97812.53
2023-05-20T16:50:05.314Z,97815.28
2023-05-20T16:52:34.883Z,97824.41
2023-05-20T16:55:04.074Z,97819.88
2023-05-20T16:57:32.712Z,97825.75
2023-05-20T17:00:00.245Z,97823.19
2023-05-20T17:02:27.689Z,97828.72
2023-05-20T17:04:55.129Z,97833.03
2023-05-20T17:07:22.351Z,97819.75
2023-05-20T17:09:49.711Z,97818.34
2023-05-20T17:12:17.143Z,97818.34
2023-05-20T17:14:44.553Z,97814.50
2023-05-20T17:17:14.130Z,97816.59
2023-05-20T17:19:41.518Z,97814.75
2023-05-20T17:22:09.033Z,97814.94
2023-05-20T17:24:36.627Z,97815.66
2023-05-20T17:27:06.202Z,97810.50
2023-05-20T17:29:33.620Z,97815.38
2023-05-20T17:32:01.012Z,97811.47
2023-05-20T17:34:28.605Z,97812.75
2023-05-20T17:36:57.318Z,97813.84
2023-05-20T17:39:24.740Z,97819.06
2023-05-20T17:41:52.388Z,97809.91
2023-05-20T17:44:19.774Z,97810.44
2023-05-20T17:46:47.168Z,97806.47
2023-05-20T17:49:14.629Z,97811.22
2023-05-20T17:51:42.495Z,97809.63
2023-05-20T17:54:10.041Z,97803.47
2023-05-20T17:56:37.441Z,97801.13
2023-05-20T17:59:04.928Z,97801.28
2023-05-20T18:01:32.404Z,97802.50
2023-05-20T18:04:03.970Z,97806.72
2023-05-20T18:06:34.592Z,97799.44
2023-05-20T18:09:04.792Z,97796.75
2023-05-20T18:11:33.780Z,97796.41
2023-05-20T18:14:02.858Z,97802.88
2023-05-20T18:16:31.258Z,97799.53
2023-05-20T18:18:58.830Z,97794.91
2023-05-20T18:21:26.612Z,97797.09
2023-05-20T18:23:54.036Z,97782.59
2023-05-20T18:26:21.832Z,97791.78
2023-05-20T18:28:50.086Z,97783.31
2023-05-20T18:31:17.552Z,97784.50
2023-05-20T18:33:44.962Z,97787.94
2023-05-20T18:36:13.154Z,97789.22
2023-05-20T18:38:41.857Z,97789.34
2023-05-20T18:41:09.624Z,97788.56
2023-05-20T18:43:36.952Z,97784.44
2023-05-20T18:46:04.609Z,97786.63
2023-05-20T18:48:32.100Z,97786.69
2023-05-20T18:50:59.396Z,97786.56
2023-05-20T18:53:26.858Z,97785.47
2023-05-20T18:55:54.235Z,97786.00
2023-05-20T18:58:22.149Z,97777.22
2023-05-20T19:00:49.563Z,97785.78
2023-05-20T19:03:17.165Z,97781.47
2023-05-20T19:05:44.596Z,97788.28
2023-05-20T19:08:11.868Z,97787.22
2023-05-20T19:10:39.267Z,97779.31
2023-05-20T19:13:06.662Z,97793.13
2023-05-20T19:15:34.520Z,97789.00
2023-05-20T19:18:02.095Z,97789.06
2023-05-20T19:20:29.588Z,97784.72
2023-05-20T19:22:56.889Z,97782.94
2023-05-20T19:25:24.135Z,97789.38
2023-05-20T19:27:51.673Z,97792.84
2023-05-20T19:30:18.904Z,97787.72
2023-05-20T19:32:46.766Z,97783.97
2023-05-20T19:35:14.577Z,97782.69
2023-05-20T19:37:42.101Z,97780.38
2023-05-20T19:40:11.256Z,97785.72
2023-05-20T19:42:38.766Z,97783.38
2023-05-20T19:45:07.327Z,97786.53
2023-05-20T19:47:34.878Z,97785.19
2023-05-20T19:50:02.426Z,97791.97
2023-05-20T19:52:31.081Z,97789.63
2023-05-20T19:54:58.723Z,97794.06
2023-05-20T19:57:26.401Z,97790.78
2023-05-20T19:59:54.014Z,97790.41
2023-05-20T20:02:21.337Z,97792.06
2023-05-20T20:04:50.381Z,97789.78
2023-05-20T20:07:18.266Z,97790.31
2023-05-20T20:09:46.989Z,97795.34
2023-05-20T20:12:14.374Z,97793.34
2023-05-20T20:14:41.844Z,97792.47
2023-05-20T20:17:13.602Z,97791.03
2023-05-20T20:19:42.371Z,97786.91
2023-05-20T20:22:10.007Z,97782.84
2023-05-20T20:24:37.505Z,97779.09
2023-05-20T20:27:06.081Z,97789.28
2023-05-20T20:29:33.476Z,97787.09
2023-05-20T20:32:00.848Z,97784.19
2023-05-20T20:34:28.614Z,97788.25
2023-05-20T20:36:56.009Z,97778.78
2023-05-20T20:39:25.253Z,97782.34
2023-05-20T20:41:52.888Z,97790.81
2023-05-20T20:44:22.920Z,97788.47
2023-05-20T20:46:52.864Z,97780.97
2023-05-20T20:49:21.219Z,97787.00
2023-05-20T20:51:50.312Z,97792.22
2023-05-20T20:54:17.837Z,97788.94
2023-05-20T20:56:47.238Z,97774.91
2023-05-20T20:59:16.062Z,97774.50
2023-05-20T21:01:44.947Z,97777.03
2023-05-20T21:04:14.079Z,97777.66
2023-05-20T21:06:47.735Z,97771.31
2023-05-20T21:09:15.876Z,97769.03
2023-05-20T21:11:45.373Z,97763.25
2023-05-20T21:14:13.527Z,97764.44
2023-05-20T21:16:42.330Z,97769.19
2023-05-20T21:19:09.840Z,97770.97
2023-05-20T21:21:37.435Z,97778.03
2023-05-20T21:24:05.018Z,97775.97
2023-05-20T21:26:32.356Z,97778.66
2023-05-20T21:28:59.872Z,97784.09
2023-05-20T21:31:27.270Z,97778.66
2023-05-20T21:33:54.586Z,97787.59
2023-05-20T21:36:22.452Z,97779.63
2023-05-20T21:38:49.792Z,97782.44
2023-05-20T21:41:17.079Z,97785.03
2023-05-20T21:43:44.406Z,97781.88
2023-05-20T21:46:11.827Z,97776.91
2023-05-20T21:48:39.257Z,97782.81
2023-05-20T21:51:06.653Z,97781.50
2023-05-20T21:53:33.918Z,97775.28
2023-05-20T21:56:01.360Z,97785.09
2023-05-20T21:58:28.863Z,97786.47
2023-05-20T22:00:56.235Z,97784.19
2023-05-20T22:03:24.590Z,97778.94
2023-05-20T22:05:52.793Z,97785.25
2023-05-20T22:08:20.279Z,97783.84
2023-05-20T22:10:48.483Z,97781.16
2023-05-20T22:13:15.900Z,97785.41
2023-05-20T22:15:43.303Z,97772.50
2023-05-20T22:18:12.575Z,97776.47
2023-05-20T22:20:40.089Z,97770.75
2023-05-20T22:23:07.449Z,97769.19
2023-05-20T22:25:36.591Z,97761.84
2023-05-20T22:28:07.170Z,97773.59
2023-05-20T22:30:35.268Z,97776.41
2023-05-20T22:33:02.701Z,97768.81
2023-05-20T22:35:30.108Z,97763.97
2023-05-20T22:37:57.608Z,97765.75
2023-05-20T22:40:24.942Z,97760.88
2023-05-20T22:42:52.690Z,97756.56
2023-05-20T22:45:19.995Z,97756.06
2023-05-20T22:47:47.526Z,97760.91
2023-05-20T22:50:15.174Z,97756.66
2023-05-20T22:52:42.955Z,97753.78
2023-05-20T22:55:11.739Z,97750.81
2023-05-20T22:57:39.268Z,97747.78
2023-05-20T23:00:08.034Z,97739.16
2023-05-20T23:02:35.530Z,97745.47
2023-05-20T23:05:04.241Z,97743.09
2023-05-20T23:07:32.109Z,97746.88
2023-05-20T23:09:59.423Z,97747.63
2023-05-20T23:12:26.808Z,97752.09
2023-05-20T23:14:54.206Z,97745.97
2023-05-20T23:17:21.522Z,97746.78
2023-05-20T23:19:48.761Z,97752.09
2023-05-20T23:22:16.558Z,97745.50
2023-05-20T23:24:43.960Z,97743.81
2023-05-20T23:27:11.234Z,97745.50
2023-05-20T23:29:38.597Z,97754.28
2023-05-20T23:32:06.209Z,97750.25
2023-05-20T23:34:34.055Z,97750.34
2023-05-20T23:37:01.447Z,97749.53
2023-05-20T23:39:28.829Z,97749.34
2023-05-20T23:41:56.206Z,97745.66
2023-05-20T23:44:23.735Z,97746.94
2023-05-20T23:46:51.145Z,97753.28
2023-05-20T23:49:18.721Z,97747.25
2023-05-20T23:51:46.029Z,97752.91
2023-05-20T23:54:16.413Z,97753.34
2023-05-20T23:56:44.050Z,97751.00
2023-05-20T23:59:11.478Z,97757.16
